Time;durP1;ratioP1;P1;durP2;ratioP2;P2;SDS_P1;SDS_P2;PMS_P1;PMS_P2;Temp;Humidity;BMP_temperature;BMP_pressure;BME280_temperature;BME280_humidity;BME280_pressure;Samples;Min_cycle;Max_cycle;Signal;HPM_P1;HPM_P2
2023/01/12 00:01:07;;;;;;;7.80;5.27;;;;;;;;;;5053528;28;20958;-54
2023/01/12 00:03:34;;;;;;;7.30;4.77;;;;;;;;;;5053519;28;20456;-54
2023/01/12 00:06:06;;;;;;;6.93;4.60;;;;;;;;;;5053318;28;20880;-56
2023/01/12 00:08:33;;;;;;;10.77;5.20;;;;;;;;;;5053240;28;20452;-54
2023/01/12 00:11:00;;;;;;;4.97;4.57;;;;;;;;;;5052952;28;20816;-54
2023/01/12 00:13:28;;;;;;;5.83;4.47;;;;;;;;;;5053251;28;20460;-55
2023/01/12 00:18:43;;;;;;;9.90;4.70;;;;;;;;;;5053048;28;20447;-55
2023/01/12 00:21:10;;;;;;;5.53;4.00;;;;;;;;;;5053092;28;20452;-55
2023/01/12 00:23:37;;;;;;;10.30;4.63;;;;;;;;;;5052843;28;20455;-54
2023/01/12 00:26:07;;;;;;;10.60;4.77;;;;;;;;;;5052974;28;20480;-56
2023/01/12 00:28:34;;;;;;;11.87;5.00;;;;;;;;;;5052818;28;20994;-56
2023/01/12 00:31:01;;;;;;;4.13;3.73;;;;;;;;;;5052914;28;20811;-56
2023/01/12 00:33:28;;;;;;;9.63;4.70;;;;;;;;;;5052855;28;20449;-54
2023/01/12 00:35:56;;;;;;;5.40;3.60;;;;;;;;;;5052692;28;20457;-54
2023/01/12 00:38:23;;;;;;;7.20;3.50;;;;;;;;;;5052869;28;20581;-54
2023/01/12 00:40:50;;;;;;;11.47;4.40;;;;;;;;;;5052729;28;20480;-57
2023/01/12 00:46:01;;;;;;;9.50;3.43;;;;;;;;;;5092248;28;20603;-56
2023/01/12 00:48:29;;;;;;;5.10;3.37;;;;;;;;;;5092801;28;20536;-55
2023/01/12 00:50:58;;;;;;;4.13;3.73;;;;;;;;;;5092995;28;20461;-58
2023/01/12 00:53:25;;;;;;;6.93;3.50;;;;;;;;;;5092717;28;20457;-56
2023/01/12 00:55:51;;;;;;;6.97;3.30;;;;;;;;;;5092870;28;20454;-55
2023/01/12 00:58:18;;;;;;;4.30;3.00;;;;;;;;;;5092854;28;20473;-56
2023/01/12 01:00:45;;;;;;;10.77;3.87;;;;;;;;;;5092700;28;21008;-56
2023/01/12 01:03:12;;;;;;;8.17;3.63;;;;;;;;;;5092689;28;20540;-56
2023/01/12 01:05:39;;;;;;;3.50;2.70;;;;;;;;;;5092838;28;20489;-58
2023/01/12 01:08:07;;;;;;;5.87;3.40;;;;;;;;;;5092794;28;20460;-56
2023/01/12 01:10:34;;;;;;;6.73;3.40;;;;;;;;;;5092740;28;20453;-56
2023/01/12 01:13:01;;;;;;;7.77;2.70;;;;;;;;;;5092733;28;20450;-56
2023/01/12 01:15:28;;;;;;;9.53;3.77;;;;;;;;;;5092556;28;20456;-57
2023/01/12 01:17:55;;;;;;;6.07;2.80;;;;;;;;;;5092785;28;20542;-54
2023/01/12 01:20:22;;;;;;;7.50;3.63;;;;;;;;;;5092699;28;20456;-56
2023/01/12 01:22:49;;;;;;;11.33;3.80;;;;;;;;;;5092727;28;20444;-56
2023/01/12 01:25:17;;;;;;;3.90;2.20;;;;;;;;;;5092549;28;20481;-56
2023/01/12 01:27:44;;;;;;;5.53;2.90;;;;;;;;;;5092425;28;20455;-57
2023/01/12 01:30:11;;;;;;;6.00;2.50;;;;;;;;;;5092446;28;20864;-57
2023/01/12 01:32:38;;;;;;;10.30;3.50;;;;;;;;;;5092715;28;20452;-56
2023/01/12 01:35:06;;;;;;;11.77;3.40;;;;;;;;;;5092577;28;20533;-55
2023/01/12 01:37:33;;;;;;;7.95;3.15;;;;;;;;;;5092581;28;20449;-56
2023/01/12 01:40:00;;;;;;;6.20;2.60;;;;;;;;;;5092552;28;20329;-55
2023/01/12 01:42:28;;;;;;;6.20;2.50;;;;;;;;;;5092354;28;20453;-57
2023/01/12 01:44:56;;;;;;;11.67;2.70;;;;;;;;;;5092318;28;20506;-56
2023/01/12 01:47:27;;;;;;;8.07;2.83;;;;;;;;;;5092392;28;20518;-56
2023/01/12 01:49:55;;;;;;;9.90;2.20;;;;;;;;;;5093741;28;20453;-56
2023/01/12 01:52:23;;;;;;;6.18;2.60;;;;;;;;;;5096006;28;20460;-56
2023/01/12 01:54:52;;;;;;;6.03;2.17;;;;;;;;;;5095944;28;20189;-56
2023/01/12 01:57:20;;;;;;;9.43;2.90;;;;;;;;;;5095871;28;20836;-56
2023/01/12 01:59:52;;;;;;;5.32;2.03;;;;;;;;;;5095994;28;20195;-55
2023/01/12 02:02:19;;;;;;;4.72;1.60;;;;;;;;;;5095871;28;20581;-57
2023/01/12 02:04:46;;;;;;;13.20;2.67;;;;;;;;;;5095769;28;20185;-56
2023/01/12 02:07:13;;;;;;;11.27;2.40;;;;;;;;;;5095487;28;21010;-56
2023/01/12 02:09:40;;;;;;;4.30;1.97;;;;;;;;;;5095547;28;20534;-56
2023/01/12 02:17:48;;;;;;;14.50;2.40;;;;;;;;;;5069493;28;20439;-55
2023/01/12 02:20:35;;;;;;;6.80;2.27;;;;;;;;;;5095358;28;20453;-57
2023/01/12 02:23:23;;;;;;;3.67;2.30;;;;;;;;;;5095525;28;20787;-57
2023/01/12 02:26:11;;;;;;;5.30;1.53;;;;;;;;;;5095344;28;20513;-56
2023/01/12 02:28:49;;;;;;;5.70;1.90;;;;;;;;;;5090472;28;20946;-57
2023/01/12 02:31:29;;;;;;;7.25;2.15;;;;;;;;;;5095357;28;20454;-55
2023/01/12 02:34:01;;;;;;;2.90;1.93;;;;;;;;;;5095181;28;20275;-55
2023/01/12 02:36:31;;;;;;;10.13;1.53;;;;;;;;;;5095150;28;20504;-51
2023/01/12 02:38:59;;;;;;;7.67;2.20;;;;;;;;;;5094998;28;20512;-57
2023/01/12 02:44:11;;;;;;;7.23;1.73;;;;;;;;;;5094550;28;20478;-55
2023/01/12 02:46:41;;;;;;;6.70;2.30;;;;;;;;;;5094942;28;20486;-55
2023/01/12 02:49:10;;;;;;;4.47;1.90;;;;;;;;;;5094877;28;20821;-57
2023/01/12 02:51:39;;;;;;;9.20;1.80;;;;;;;;;;5094984;28;20812;-55
2023/01/12 02:54:09;;;;;;;10.97;2.00;;;;;;;;;;5094860;28;20478;-53
2023/01/12 02:56:38;;;;;;;10.20;2.57;;;;;;;;;;5094801;28;20476;-56
2023/01/12 02:59:07;;;;;;;2.57;1.70;;;;;;;;;;5094696;28;20460;-56
2023/01/12 03:01:36;;;;;;;9.47;2.17;;;;;;;;;;5093496;28;20553;-57
2023/01/12 03:04:06;;;;;;;6.07;1.90;;;;;;;;;;5094494;28;20454;-54
2023/01/12 03:06:41;;;;;;;5.10;1.97;;;;;;;;;;5094588;28;20492;-57
2023/01/12 03:09:09;;;;;;;6.60;1.57;;;;;;;;;;5094518;28;20450;-56
2023/01/12 03:11:38;;;;;;;5.83;1.83;;;;;;;;;;5094436;28;20448;-55
2023/01/12 03:14:06;;;;;;;17.20;1.93;;;;;;;;;;5094401;28;20445;-53
2023/01/12 03:16:35;;;;;;;8.40;2.67;;;;;;;;;;5094506;28;20797;-55
2023/01/12 03:19:08;;;;;;;8.33;1.60;;;;;;;;;;5094461;28;20470;-54
2023/01/12 03:21:37;;;;;;;6.77;2.93;;;;;;;;;;5094301;28;20450;-56
2023/01/12 03:24:05;;;;;;;9.80;1.83;;;;;;;;;;5094282;28;20542;-55
2023/01/12 03:26:33;;;;;;;5.00;1.50;;;;;;;;;;5094086;28;20564;-56
2023/01/12 03:29:02;;;;;;;9.07;2.20;;;;;;;;;;5094020;28;20549;-54
2023/01/12 03:31:29;;;;;;;10.13;2.07;;;;;;;;;;5094320;28;20511;-56
2023/01/12 03:33:56;;;;;;;5.23;1.37;;;;;;;;;;5094095;28;20481;-53
2023/01/12 03:36:28;;;;;;;6.93;1.73;;;;;;;;;;5094021;28;20457;-54
2023/01/12 03:39:01;;;;;;;6.87;2.10;;;;;;;;;;5093947;28;20534;-55
2023/01/12 03:41:31;;;;;;;4.03;1.50;;;;;;;;;;5093835;28;20545;-56
2023/01/12 03:43:59;;;;;;;3.07;1.80;;;;;;;;;;5093818;28;20454;-57
2023/01/12 03:46:29;;;;;;;6.43;1.57;;;;;;;;;;5093858;28;20828;-56
2023/01/12 03:48:59;;;;;;;9.90;1.87;;;;;;;;;;5093789;28;20544;-52
2023/01/12 03:51:27;;;;;;;4.90;1.60;;;;;;;;;;5093746;28;20815;-53
2023/01/12 03:53:56;;;;;;;6.47;2.23;;;;;;;;;;5093585;28;20456;-56
2023/01/12 03:56:26;;;;;;;4.70;1.50;;;;;;;;;;5093580;28;20962;-56
2023/01/12 03:58:53;;;;;;;4.93;1.43;;;;;;;;;;5093491;28;20447;-56
2023/01/12 04:01:20;;;;;;;4.97;1.63;;;;;;;;;;5093614;28;20810;-56
2023/01/12 04:03:47;;;;;;;2.90;1.40;;;;;;;;;;5093518;28;20501;-53
2023/01/12 04:06:14;;;;;;;4.27;1.50;;;;;;;;;;5093258;28;20453;-54
2023/01/12 04:08:41;;;;;;;4.03;1.70;;;;;;;;;;5093325;28;20537;-56
2023/01/12 04:13:50;;;;;;;6.20;1.53;;;;;;;;;;5092739;28;20446;-56
2023/01/12 04:16:17;;;;;;;3.37;1.40;;;;;;;;;;5093244;28;20454;-56
2023/01/12 04:18:44;;;;;;;3.07;1.70;;;;;;;;;;5093125;28;20447;-56
2023/01/12 04:22:41;;;;;;;5.50;1.30;;;;;;;;;;5093179;28;20454;-58
2023/01/12 04:23:57;;;;;;;2.30;1.20;;;;;;;;;;5093089;28;20963;-56
2023/01/12 04:26:24;;;;;;;6.80;1.50;;;;;;;;;;5093115;28;20446;-56
2023/01/12 04:28:52;;;;;;;3.93;1.60;;;;;;;;;;5093129;28;20540;-56
2023/01/12 04:31:19;;;;;;;2.97;1.23;;;;;;;;;;5092908;28;20503;-56
2023/01/12 04:33:46;;;;;;;5.07;1.50;;;;;;;;;;5093135;28;20453;-56
2023/01/12 04:36:13;;;;;;;4.67;1.53;;;;;;;;;;5093076;28;20450;-56
2023/01/12 04:38:41;;;;;;;4.07;1.77;;;;;;;;;;5093014;28;20452;-57
2023/01/12 04:41:08;;;;;;;6.10;1.60;;;;;;;;;;5092958;28;20495;-56
2023/01/12 04:43:35;;;;;;;7.17;1.20;;;;;;;;;;5092961;28;20533;-57
2023/01/12 04:46:06;;;;;;;5.97;2.03;;;;;;;;;;5092590;28;20992;-57
2023/01/12 04:48:33;;;;;;;5.20;1.57;;;;;;;;;;5092788;28;20978;-55
2023/01/12 04:51:01;;;;;;;5.27;1.30;;;;;;;;;;5092982;28;20450;-56
2023/01/12 04:53:28;;;;;;;3.60;1.33;;;;;;;;;;5092977;28;20479;-55
2023/01/12 04:55:55;;;;;;;3.00;1.20;;;;;;;;;;5092849;28;20496;-57
2023/01/12 04:58:22;;;;;;;5.50;1.03;;;;;;;;;;5092789;28;20498;-56
2023/01/12 05:00:49;;;;;;;6.27;1.87;;;;;;;;;;5092949;28;20549;-56
2023/01/12 05:03:17;;;;;;;6.20;1.50;;;;;;;;;;5092571;28;20542;-57
2023/01/12 05:05:44;;;;;;;4.93;1.30;;;;;;;;;;5092770;28;20450;-56
2023/01/12 05:10:56;;;;;;;9.00;1.10;;;;;;;;;;5092613;28;20447;-58
2023/01/12 05:13:24;;;;;;;5.30;1.70;;;;;;;;;;5092243;28;20940;-55
2023/01/12 05:15:51;;;;;;;3.80;1.27;;;;;;;;;;5092480;28;20454;-57
2023/01/12 05:18:19;;;;;;;10.10;2.57;;;;;;;;;;5092725;28;20496;-57
2023/01/12 05:20:46;;;;;;;6.13;1.70;;;;;;;;;;5092624;28;20541;-55
2023/01/12 05:23:13;;;;;;;7.37;1.50;;;;;;;;;;5092985;28;20449;-57
2023/01/12 05:25:40;;;;;;;5.50;1.93;;;;;;;;;;5095191;28;20777;-57
2023/01/12 05:28:07;;;;;;;4.43;1.50;;;;;;;;;;5096536;28;20486;-56
2023/01/12 05:30:34;;;;;;;4.13;1.47;;;;;;;;;;5096343;28;20973;-57
2023/01/12 05:33:01;;;;;;;6.27;2.10;;;;;;;;;;5096552;28;20452;-55
2023/01/12 05:35:29;;;;;;;4.33;1.93;;;;;;;;;;5096338;28;20456;-56
2023/01/12 05:37:56;;;;;;;4.63;1.70;;;;;;;;;;5096161;28;20543;-57
2023/01/12 05:40:23;;;;;;;3.90;1.40;;;;;;;;;;5096355;28;20453;-57
2023/01/12 05:45:35;;;;;;;3.17;1.40;;;;;;;;;;5095803;28;20516;-55
2023/01/12 05:48:02;;;;;;;4.93;1.17;;;;;;;;;;5095609;28;20845;-57
2023/01/12 05:50:30;;;;;;;5.50;1.80;;;;;;;;;;5095713;28;20446;-55
2023/01/12 05:52:57;;;;;;;3.67;1.60;;;;;;;;;;5095987;28;20541;-56
2023/01/12 05:55:25;;;;;;;4.90;1.80;;;;;;;;;;5095938;28;20441;-57
2023/01/12 05:57:52;;;;;;;6.37;1.57;;;;;;;;;;5095951;28;20446;-55
2023/01/12 06:00:20;;;;;;;2.70;1.50;;;;;;;;;;5095789;28;20456;-55
2023/01/12 06:02:46;;;;;;;8.27;1.73;;;;;;;;;;5095654;28;20950;-59
2023/01/12 06:05:13;;;;;;;3.07;1.57;;;;;;;;;;5095551;28;20544;-57
2023/01/12 06:07:42;;;;;;;4.17;1.80;;;;;;;;;;5095754;28;20483;-55
2023/01/12 06:10:10;;;;;;;7.30;2.17;;;;;;;;;;5095493;28;20949;-56
2023/01/12 06:15:21;;;;;;;2.60;1.10;;;;;;;;;;5095415;28;20450;-55
2023/01/12 06:17:48;;;;;;;4.93;1.13;;;;;;;;;;5095245;28;20543;-56
2023/01/12 06:20:16;;;;;;;8.43;1.60;;;;;;;;;;5095529;28;20537;-57
2023/01/12 06:22:44;;;;;;;3.33;1.50;;;;;;;;;;5095285;28;20448;-56
2023/01/12 06:25:11;;;;;;;2.60;1.40;;;;;;;;;;5095266;28;20507;-57
2023/01/12 06:27:38;;;;;;;8.23;1.87;;;;;;;;;;5095012;28;20473;-55
2023/01/12 06:30:06;;;;;;;10.67;2.43;;;;;;;;;;5095086;28;20462;-58
2023/01/12 06:32:33;;;;;;;7.43;2.30;;;;;;;;;;5095288;28;20473;-57
2023/01/12 06:35:02;;;;;;;8.50;1.97;;;;;;;;;;5094924;28;20451;-56
2023/01/12 06:37:29;;;;;;;4.60;1.87;;;;;;;;;;5095009;28;20449;-54
2023/01/12 06:39:57;;;;;;;6.10;1.70;;;;;;;;;;5094966;28;20459;-55
2023/01/12 06:42:30;;;;;;;6.00;1.33;;;;;;;;;;5094958;28;20447;-55
2023/01/12 06:44:57;;;;;;;4.83;1.50;;;;;;;;;;5094848;28;20501;-55
2023/01/12 06:47:24;;;;;;;3.60;1.83;;;;;;;;;;5094881;28;20653;-57
2023/01/12 06:49:51;;;;;;;5.27;1.73;;;;;;;;;;5094821;28;20483;-58
2023/01/12 06:52:19;;;;;;;3.40;1.40;;;;;;;;;;5094652;28;20536;-58
2023/01/12 06:54:46;;;;;;;6.73;2.20;;;;;;;;;;5094564;28;20485;-55
2023/01/12 06:57:15;;;;;;;4.77;1.90;;;;;;;;;;5094513;28;20478;-58
2023/01/12 06:59:42;;;;;;;4.37;1.53;;;;;;;;;;5094619;28;20457;-56
2023/01/12 07:02:11;;;;;;;6.90;1.63;;;;;;;;;;5094664;28;20938;-57
2023/01/12 07:04:38;;;;;;;7.20;2.37;;;;;;;;;;5094601;28;20455;-56
2023/01/12 07:07:05;;;;;;;8.40;1.83;;;;;;;;;;5094409;28;20446;-55
2023/01/12 07:09:32;;;;;;;4.23;1.40;;;;;;;;;;5094079;28;20508;-57
2023/01/12 07:11:59;;;;;;;3.47;1.80;;;;;;;;;;5094356;28;20538;-57
2023/01/12 07:14:27;;;;;;;5.67;1.73;;;;;;;;;;5094242;28;20447;-57
2023/01/12 07:16:54;;;;;;;3.17;1.80;;;;;;;;;;5094393;28;20545;-57
2023/01/12 07:19:21;;;;;;;5.37;2.17;;;;;;;;;;5094292;28;20473;-57
2023/01/12 07:21:49;;;;;;;5.23;1.83;;;;;;;;;;5094362;28;20876;-56
2023/01/12 07:24:16;;;;;;;4.13;1.50;;;;;;;;;;5094004;28;20459;-57
2023/01/12 07:26:43;;;;;;;5.53;1.40;;;;;;;;;;5094227;28;20537;-57
2023/01/12 07:29:10;;;;;;;6.47;1.60;;;;;;;;;;5094188;28;20478;-57
2023/01/12 07:31:38;;;;;;;2.87;1.27;;;;;;;;;;5094047;28;20455;-54
2023/01/12 07:34:05;;;;;;;6.60;1.80;;;;;;;;;;5094028;28;20833;-57
2023/01/12 07:36:32;;;;;;;5.20;2.10;;;;;;;;;;5093841;28;20547;-57
2023/01/12 07:38:59;;;;;;;6.80;2.10;;;;;;;;;;5093862;28;21079;-54
2023/01/12 07:44:11;;;;;;;7.70;1.60;;;;;;;;;;5093575;28;20461;-57
2023/01/12 07:46:39;;;;;;;6.43;2.33;;;;;;;;;;5093442;28;20534;-57
2023/01/12 07:49:06;;;;;;;6.20;1.90;;;;;;;;;;5093223;28;20561;-57
2023/01/12 07:51:33;;;;;;;2.30;1.43;;;;;;;;;;5093470;28;20810;-56
2023/01/12 07:54:00;;;;;;;7.80;1.70;;;;;;;;;;5093623;28;20447;-57
2023/01/12 07:56:27;;;;;;;7.17;1.40;;;;;;;;;;5093506;28;20446;-57
2023/01/12 07:58:54;;;;;;;4.03;1.10;;;;;;;;;;5093527;28;20806;-57
2023/01/12 08:01:21;;;;;;;2.77;1.50;;;;;;;;;;5093297;28;21033;-57
2023/01/12 08:03:49;;;;;;;7.00;1.50;;;;;;;;;;5093284;28;20453;-55
2023/01/12 08:06:17;;;;;;;5.30;1.63;;;;;;;;;;5093155;28;20486;-56
2023/01/12 08:08:44;;;;;;;1.63;1.10;;;;;;;;;;5093379;28;20537;-57
2023/01/12 08:11:11;;;;;;;2.70;1.40;;;;;;;;;;5093420;28;20481;-57
2023/01/12 08:13:39;;;;;;;4.90;1.30;;;;;;;;;;5093226;28;20449;-57
2023/01/12 08:16:09;;;;;;;5.47;1.37;;;;;;;;;;5093188;28;20455;-57
2023/01/12 08:18:39;;;;;;;3.83;1.30;;;;;;;;;;5092856;28;20477;-57
2023/01/12 08:21:09;;;;;;;5.17;1.30;;;;;;;;;;5093174;28;20447;-53
2023/01/12 08:23:37;;;;;;;5.00;1.50;;;;;;;;;;5092792;28;20461;-53
2023/01/12 08:26:06;;;;;;;3.53;1.60;;;;;;;;;;5093048;28;20476;-63
2023/01/12 08:28:34;;;;;;;6.43;1.73;;;;;;;;;;5092782;28;21001;-58
2023/01/12 08:31:01;;;;;;;5.73;1.40;;;;;;;;;;5092901;28;20473;-62
2023/01/12 08:33:28;;;;;;;6.20;1.50;;;;;;;;;;5093142;28;20451;-63
2023/01/12 08:35:55;;;;;;;6.80;1.97;;;;;;;;;;5092875;28;20445;-62
2023/01/12 08:38:24;;;;;;;2.53;1.20;;;;;;;;;;5092913;28;20534;-65
2023/01/12 08:46:20;;;;;;;2.57;1.13;;;;;;;;;;5092683;28;20426;-57
2023/01/12 08:48:47;;;;;;;2.37;1.10;;;;;;;;;;5092770;28;20489;-57
2023/01/12 08:51:14;;;;;;;4.67;2.30;;;;;;;;;;5092852;28;20451;-60
2023/01/12 08:53:42;;;;;;;5.00;2.30;;;;;;;;;;5092512;28;20946;-62
2023/01/12 08:56:09;;;;;;;4.57;1.47;;;;;;;;;;5092585;28;20189;-60
2023/01/12 08:58:36;;;;;;;4.70;1.60;;;;;;;;;;5093895;28;20446;-64
2023/01/12 09:01:07;;;;;;;2.07;1.47;;;;;;;;;;5097020;28;20453;-56
2023/01/12 09:03:34;;;;;;;2.20;1.10;;;;;;;;;;5096931;28;20845;-59
2023/01/12 09:06:08;;;;;;;3.07;1.43;;;;;;;;;;5096649;28;20446;-60
2023/01/12 09:08:35;;;;;;;4.13;1.30;;;;;;;;;;5096362;28;20485;-59
2023/01/12 09:11:04;;;;;;;2.03;1.00;;;;;;;;;;5096748;28;20451;-58
2023/01/12 09:13:31;;;;;;;4.03;1.20;;;;;;;;;;5096592;28;20451;-63
2023/01/12 09:16:02;;;;;;;4.33;1.80;;;;;;;;;;5096210;28;20447;-61
2023/01/12 09:18:28;;;;;;;5.17;1.97;;;;;;;;;;5096622;28;20454;-60
2023/01/12 09:21:00;;;;;;;1.90;1.30;;;;;;;;;;5096479;28;20470;-59
2023/01/12 09:23:27;;;;;;;3.93;1.73;;;;;;;;;;5096656;28;20458;-62
2023/01/12 09:25:54;;;;;;;3.40;1.37;;;;;;;;;;5096513;28;20447;-60
2023/01/12 09:28:23;;;;;;;3.00;1.80;;;;;;;;;;5096396;28;20478;-61
2023/01/12 09:30:50;;;;;;;4.93;1.90;;;;;;;;;;5096264;28;20537;-59
2023/01/12 09:33:17;;;;;;;10.47;1.63;;;;;;;;;;5096001;28;20446;-63
2023/01/12 09:35:44;;;;;;;4.03;1.47;;;;;;;;;;5096423;28;20798;-60
2023/01/12 09:38:11;;;;;;;4.47;1.60;;;;;;;;;;5096089;28;20856;-64
2023/01/12 09:40:42;;;;;;;5.07;1.50;;;;;;;;;;5095755;28;20453;-60
2023/01/12 09:48:42;;;;;;;4.60;1.30;;;;;;;;;;5096020;28;20550;-58
2023/01/12 09:51:12;;;;;;;6.00;1.20;;;;;;;;;;5096043;28;20447;-58
2023/01/12 09:53:41;;;;;;;7.80;1.90;;;;;;;;;;5095916;28;20457;-59
2023/01/12 09:56:11;;;;;;;5.37;1.77;;;;;;;;;;5095675;28;20537;-59
2023/01/12 09:58:44;;;;;;;3.73;1.47;;;;;;;;;;5095549;28;20479;-59
2023/01/12 10:01:14;;;;;;;3.50;1.10;;;;;;;;;;5095607;28;20486;-58
2023/01/12 10:03:42;;;;;;;3.03;1.20;;;;;;;;;;5095678;28;20485;-59
2023/01/12 10:06:14;;;;;;;2.50;1.50;;;;;;;;;;5095596;28;20871;-59
2023/01/12 10:08:43;;;;;;;3.60;1.50;;;;;;;;;;5095411;28;20478;-60
2023/01/12 10:11:12;;;;;;;3.73;1.17;;;;;;;;;;5094954;28;20880;-60
2023/01/12 10:13:48;;;;;;;5.73;1.83;;;;;;;;;;5095611;28;20541;-60
2023/01/12 10:16:19;;;;;;;3.90;1.27;;;;;;;;;;5095717;28;20451;-63
2023/01/12 10:18:48;;;;;;;4.13;1.27;;;;;;;;;;5095536;28;20447;-61
2023/01/12 10:21:15;;;;;;;5.00;1.30;;;;;;;;;;5095240;28;20528;-61
2023/01/12 10:23:42;;;;;;;3.60;2.10;;;;;;;;;;5095200;28;20542;-62
2023/01/12 10:26:14;;;;;;;3.10;1.70;;;;;;;;;;5095339;28;20478;-63
2023/01/12 10:28:43;;;;;;;4.40;1.37;;;;;;;;;;5095183;28;20510;-62
2023/01/12 10:31:12;;;;;;;5.07;1.40;;;;;;;;;;5095219;28;20446;-60
2023/01/12 10:33:45;;;;;;;7.70;2.03;;;;;;;;;;5095126;28;20545;-63
2023/01/12 10:36:16;;;;;;;4.40;1.53;;;;;;;;;;5095169;28;20537;-63
2023/01/12 10:38:55;;;;;;;3.77;1.50;;;;;;;;;;5094945;28;20450;-61
2023/01/12 10:41:23;;;;;;;2.40;1.33;;;;;;;;;;5094830;28;20453;-56
2023/01/12 10:44:06;;;;;;;6.73;2.03;;;;;;;;;;5094293;28;20535;-61
2023/01/12 10:46:34;;;;;;;3.33;1.20;;;;;;;;;;5094533;28;20893;-59
2023/01/12 10:49:17;;;;;;;3.20;1.60;;;;;;;;;;5094864;28;20524;-64
2023/01/12 10:51:50;;;;;;;4.27;1.33;;;;;;;;;;5094857;28;20455;-58
2023/01/12 10:54:18;;;;;;;3.10;1.50;;;;;;;;;;5094734;28;20538;-58
2023/01/12 10:56:54;;;;;;;4.83;1.80;;;;;;;;;;5094471;28;20443;-60
2023/01/12 10:59:24;;;;;;;5.30;1.17;;;;;;;;;;5094748;28;20443;-61
2023/01/12 11:01:52;;;;;;;5.60;1.83;;;;;;;;;;5094469;28;20942;-60
2023/01/12 11:04:22;;;;;;;5.47;1.63;;;;;;;;;;5094552;28;20538;-65
2023/01/12 11:06:57;;;;;;;4.00;1.60;;;;;;;;;;5094783;28;20545;-59
2023/01/12 11:09:25;;;;;;;4.20;1.23;;;;;;;;;;5094131;28;20910;-58
2023/01/12 11:11:56;;;;;;;2.83;1.50;;;;;;;;;;5094374;28;20548;-58
2023/01/12 11:14:27;;;;;;;1.97;1.17;;;;;;;;;;5094441;28;20459;-54
2023/01/12 11:16:54;;;;;;;4.80;1.80;;;;;;;;;;5094072;28;20857;-64
2023/01/12 11:19:26;;;;;;;2.80;1.40;;;;;;;;;;5094256;28;20868;-61
2023/01/12 11:21:55;;;;;;;4.43;1.87;;;;;;;;;;5093566;28;20452;-58
2023/01/12 11:24:29;;;;;;;4.97;1.53;;;;;;;;;;5094129;28;20473;-58
2023/01/12 11:26:57;;;;;;;2.40;1.23;;;;;;;;;;5094259;28;20877;-58
2023/01/12 11:29:29;;;;;;;3.53;1.20;;;;;;;;;;5093886;28;20479;-56
2023/01/12 11:31:59;;;;;;;2.73;1.40;;;;;;;;;;5093696;28;20541;-59
2023/01/12 11:34:31;;;;;;;4.20;1.40;;;;;;;;;;5093827;28;20451;-62
2023/01/12 11:37:03;;;;;;;4.30;1.40;;;;;;;;;;5094079;28;20451;-59
2023/01/12 11:39:31;;;;;;;1.63;1.27;;;;;;;;;;5093629;28;20451;-59
2023/01/12 11:44:47;;;;;;;4.60;2.17;;;;;;;;;;5093633;28;20516;-59
2023/01/12 11:47:16;;;;;;;5.70;1.63;;;;;;;;;;5093818;28;20477;-57
2023/01/12 11:49:48;;;;;;;3.03;1.60;;;;;;;;;;5093736;28;20833;-58
2023/01/12 11:52:16;;;;;;;4.80;1.60;;;;;;;;;;5093715;28;20451;-56
2023/01/12 11:54:43;;;;;;;3.63;1.80;;;;;;;;;;5093476;28;20538;-60
2023/01/12 11:57:19;;;;;;;2.40;1.30;;;;;;;;;;5093390;28;20516;-62
2023/01/12 11:59:52;;;;;;;3.47;1.53;;;;;;;;;;5093710;28;20541;-58
2023/01/12 12:02:31;;;;;;;6.37;1.90;;;;;;;;;;5093582;28;20447;-63
2023/01/12 12:05:05;;;;;;;3.30;1.60;;;;;;;;;;5093385;28;20512;-59
2023/01/12 12:07:38;;;;;;;3.43;1.23;;;;;;;;;;5092795;28;20443;-60
2023/01/12 12:10:15;;;;;;;2.73;1.30;;;;;;;;;;5093109;28;20494;-59
2023/01/12 12:12:46;;;;;;;7.03;2.10;;;;;;;;;;5093135;28;20482;-58
2023/01/12 12:15:23;;;;;;;2.10;1.10;;;;;;;;;;5092855;28;20780;-58
2023/01/12 12:17:56;;;;;;;1.30;0.90;;;;;;;;;;5092865;28;20449;-59
2023/01/12 12:20:30;;;;;;;1.67;1.10;;;;;;;;;;5092931;28;20598;-61
2023/01/12 12:23:02;;;;;;;3.77;1.23;;;;;;;;;;5093075;28;20529;-59
2023/01/12 12:25:33;;;;;;;3.33;1.50;;;;;;;;;;5092950;28;20451;-59
2023/01/12 12:28:17;;;;;;;1.80;0.90;;;;;;;;;;5092654;28;20542;-59
2023/01/12 12:30:54;;;;;;;2.37;1.20;;;;;;;;;;5092955;28;20482;-60
2023/01/12 12:33:25;;;;;;;2.97;1.10;;;;;;;;;;5092738;28;20810;-58
2023/01/12 12:35:59;;;;;;;3.23;1.13;;;;;;;;;;5092909;28;20453;-61
2023/01/12 12:38:32;;;;;;;3.03;1.20;;;;;;;;;;5093090;28;20875;-63
2023/01/12 12:46:45;;;;;;;1.90;0.90;;;;;;;;;;5092642;28;20446;-61
2023/01/12 12:49:15;;;;;;;2.53;1.17;;;;;;;;;;5092731;28;20485;-61
2023/01/12 12:51:43;;;;;;;2.30;0.90;;;;;;;;;;5092602;28;20546;-62
2023/01/12 12:54:13;;;;;;;1.53;0.67;;;;;;;;;;5092847;28;20454;-60
2023/01/12 12:56:40;;;;;;;2.50;0.70;;;;;;;;;;5092699;28;20474;-63
2023/01/12 12:59:07;;;;;;;1.20;0.90;;;;;;;;;;5092379;28;20446;-60
2023/01/12 13:01:41;;;;;;;2.00;1.30;;;;;;;;;;5092667;28;20503;-59
2023/01/12 13:04:09;;;;;;;3.57;0.80;;;;;;;;;;5092941;28;20447;-62
2023/01/12 13:06:37;;;;;;;1.33;0.80;;;;;;;;;;5092832;28;20852;-60
2023/01/12 13:09:33;;;;;;;1.57;0.70;;;;;;;;;;5092768;28;20477;-59
2023/01/12 13:12:10;;;;;;;1.37;0.90;;;;;;;;;;5092509;28;21034;-60
2023/01/12 13:14:37;;;;;;;1.60;1.30;;;;;;;;;;5092582;28;20445;-60
2023/01/12 13:17:06;;;;;;;1.70;1.10;;;;;;;;;;5092605;28;20824;-60
2023/01/12 13:19:35;;;;;;;1.70;0.70;;;;;;;;;;5092674;28;20457;-56
2023/01/12 13:22:26;;;;;;;0.70;0.60;;;;;;;;;;5092405;28;20458;-60
2023/01/12 13:24:54;;;;;;;0.90;0.80;;;;;;;;;;5092479;28;20442;-59
2023/01/12 13:27:41;;;;;;;1.10;0.70;;;;;;;;;;5092351;28;20443;-59
2023/01/12 13:30:21;;;;;;;1.43;0.80;;;;;;;;;;5092203;28;20490;-58
2023/01/12 13:32:57;;;;;;;1.13;0.70;;;;;;;;;;5091829;28;20445;-59
2023/01/12 13:35:29;;;;;;;1.00;0.70;;;;;;;;;;5092415;28;20193;-58
2023/01/12 13:38:01;;;;;;;1.73;0.70;;;;;;;;;;5092406;28;20450;-61
2023/01/12 13:40:30;;;;;;;0.70;0.60;;;;;;;;;;5091866;28;20997;-60
2023/01/12 13:43:15;;;;;;;0.80;0.70;;;;;;;;;;5091565;28;20543;-59
2023/01/12 13:45:46;;;;;;;0.70;0.60;;;;;;;;;;5092501;28;20528;-59
2023/01/12 13:48:14;;;;;;;0.73;0.70;;;;;;;;;;5095957;28;20442;-59
2023/01/12 13:50:46;;;;;;;0.73;0.67;;;;;;;;;;5095694;28;20844;-59
2023/01/12 13:53:19;;;;;;;1.53;0.83;;;;;;;;;;5095716;28;20530;-59
2023/01/12 13:55:55;;;;;;;1.40;0.63;;;;;;;;;;5095565;28;20550;-59
2023/01/12 13:58:22;;;;;;;0.70;0.67;;;;;;;;;;5095732;28;20814;-59
2023/01/12 14:00:54;;;;;;;0.70;0.60;;;;;;;;;;5095369;28;20524;-59
2023/01/12 14:03:27;;;;;;;0.97;0.80;;;;;;;;;;5095270;28;20537;-59
2023/01/12 14:05:59;;;;;;;0.90;0.57;;;;;;;;;;5095236;28;20457;-59
2023/01/12 14:08:56;;;;;;;2.00;0.60;;;;;;;;;;5095142;28;20960;-59
2023/01/12 14:11:36;;;;;;;2.93;0.80;;;;;;;;;;5032832;28;20969;-59
2023/01/12 14:19:40;;;;;;;0.80;0.70;;;;;;;;;;5095150;28;20442;-59
2023/01/12 14:22:16;;;;;;;1.30;0.73;;;;;;;;;;5094934;28;20958;-59
2023/01/12 14:24:43;;;;;;;0.73;0.70;;;;;;;;;;5095011;28;20446;-59
2023/01/12 14:27:21;;;;;;;0.73;0.70;;;;;;;;;;5094913;28;20492;-59
2023/01/12 14:29:48;;;;;;;1.00;0.70;;;;;;;;;;5095065;28;20486;-59
2023/01/12 14:32:15;;;;;;;1.13;0.80;;;;;;;;;;5094804;28;21012;-59
2023/01/12 14:34:47;;;;;;;0.83;0.63;;;;;;;;;;5094725;28;20926;-59
2023/01/12 14:37:23;;;;;;;1.20;0.80;;;;;;;;;;5094652;28;20814;-59
2023/01/12 14:39:50;;;;;;;0.87;0.60;;;;;;;;;;5094687;28;20941;-59
2023/01/12 14:48:18;;;;;;;0.70;0.60;;;;;;;;;;5094860;28;20539;-59
2023/01/12 14:50:58;;;;;;;0.97;0.70;;;;;;;;;;5094518;28;20955;-59
2023/01/12 14:53:26;;;;;;;0.90;0.70;;;;;;;;;;5094207;28;20520;-59
2023/01/12 14:55:52;;;;;;;1.10;1.00;;;;;;;;;;5094231;28;20479;-59
2023/01/12 14:58:21;;;;;;;0.70;0.70;;;;;;;;;;5094153;28;20551;-59
2023/01/12 15:00:48;;;;;;;0.80;0.77;;;;;;;;;;5094455;28;20491;-59
2023/01/12 15:03:19;;;;;;;2.23;0.70;;;;;;;;;;5094166;28;20529;-59
2023/01/12 15:05:50;;;;;;;0.80;0.70;;;;;;;;;;5094294;28;20538;-59
2023/01/12 15:08:22;;;;;;;0.70;0.60;;;;;;;;;;5094311;28;20462;-59
2023/01/12 15:10:56;;;;;;;0.80;0.60;;;;;;;;;;5094105;28;20577;-59
2023/01/12 15:13:26;;;;;;;0.80;0.70;;;;;;;;;;5094348;28;20470;-59
2023/01/12 15:27:02;;;;;;;1.03;0.70;;;;;;;;;;5094201;28;20554;-59
2023/01/12 15:29:30;;;;;;;1.40;0.80;;;;;;;;;;5093519;28;20443;-60
2023/01/12 15:31:57;;;;;;;1.20;1.00;;;;;;;;;;5093675;28;20534;-59
2023/01/12 15:34:24;;;;;;;1.17;0.97;;;;;;;;;;5094151;28;20447;-59
2023/01/12 15:36:51;;;;;;;0.80;0.80;;;;;;;;;;5093827;28;20558;-59
2023/01/12 15:39:18;;;;;;;1.10;1.00;;;;;;;;;;5093937;28;20451;-59
2023/01/12 15:44:31;;;;;;;1.90;1.50;;;;;;;;;;5093289;28;20779;-59
2023/01/12 15:46:58;;;;;;;0.90;0.70;;;;;;;;;;5093623;28;20453;-59
2023/01/12 15:49:25;;;;;;;1.30;0.87;;;;;;;;;;5093592;28;20806;-59
2023/01/12 15:51:52;;;;;;;0.70;0.70;;;;;;;;;;5093330;28;20483;-59
2023/01/12 15:54:20;;;;;;;0.73;0.70;;;;;;;;;;5093616;28;20538;-59
2023/01/12 15:56:47;;;;;;;1.43;0.87;;;;;;;;;;5093388;28;20804;-59
2023/01/12 15:59:15;;;;;;;2.50;1.03;;;;;;;;;;5093566;28;20452;-59
2023/01/12 16:01:44;;;;;;;1.57;0.80;;;;;;;;;;5093544;28;20450;-59
2023/01/12 16:04:14;;;;;;;1.93;0.70;;;;;;;;;;5093318;28;20447;-59
2023/01/12 16:06:41;;;;;;;1.10;0.70;;;;;;;;;;5093122;28;20853;-59
2023/01/12 16:09:08;;;;;;;1.03;0.93;;;;;;;;;;5092464;28;20958;-59